Osorno, Osorno Airport (SCJO)

NameOsorno Airport
CityOsorno
CountryChile
ICAOSCJO
IATAZOS
Altitude57 m
CoordinatesGoogle Map
Live Air TrafficLiveATC.net
METARSCJO 251800Z 36009KT 9999 BKN020 OVC080 09/07 Q1016
2019-06-25 18:00:00 Wind: North (360°) 4.63 m/s - Visibility: > 10000 m - Temperature: 9 °C - Dew point: 7 °C - Humidity: 87.4% - Pressure: 1016 hPa

Sorry, no flights used the airport in this database.